Time;durP1;ratioP1;P1;durP2;ratioP2;P2;SDS_P1;SDS_P2;PMS_P1;PMS_P2;Temp;Humidity;BMP_temperature;BMP_pressure;BME280_temperature;BME280_humidity;BME280_pressure;Samples;Min_cycle;Max_cycle;Signal;HPM_P1;HPM_P2
2021/12/12 00:01:20;;;;;;;8.80;7.90;;;2.60;99.90;;;;;;4996637;28;20213;-74
2021/12/12 00:03:52;;;;;;;9.50;8.60;;;2.60;99.90;;;;;;4999134;28;20175;-74
2021/12/12 00:06:24;;;;;;;9.43;8.50;;;2.60;99.90;;;;;;4978993;28;20294;-73
2021/12/12 00:08:58;;;;;;;9.10;8.20;;;2.60;99.90;;;;;;4996381;28;20687;-73
2021/12/12 00:11:28;;;;;;;9.80;9.00;;;2.60;99.90;;;;;;4996721;28;20682;-74
2021/12/12 00:13:59;;;;;;;10.77;9.43;;;2.60;99.90;;;;;;4996554;28;20673;-74
2021/12/12 00:16:25;;;;;;;9.10;8.30;;;2.50;99.90;;;;;;4978131;28;20222;-74
2021/12/12 00:18:51;;;;;;;10.03;9.03;;;2.40;99.90;;;;;;4978678;28;20202;-73
2021/12/12 00:21:19;;;;;;;8.77;7.90;;;2.40;99.90;;;;;;4979047;28;20180;-73
2021/12/12 00:23:45;;;;;;;10.67;9.20;;;2.40;99.90;;;;;;4996181;28;20176;-74
2021/12/12 00:26:11;;;;;;;9.50;8.57;;;2.40;99.90;;;;;;4996047;28;20190;-73
2021/12/12 00:28:39;;;;;;;12.80;8.67;;;2.40;99.90;;;;;;4995931;28;20612;-73
2021/12/12 00:31:12;;;;;;;10.87;8.23;;;2.50;99.90;;;;;;4996145;28;20180;-74
2021/12/12 00:33:41;;;;;;;9.60;8.70;;;2.40;99.90;;;;;;4995862;28;20207;-74
2021/12/12 00:36:08;;;;;;;9.97;8.97;;;2.40;99.90;;;;;;4995873;28;20202;-74
2021/12/12 00:38:35;;;;;;;9.77;8.87;;;2.50;99.90;;;;;;4995706;28;20707;-73
2021/12/12 00:41:07;;;;;;;9.67;8.73;;;2.50;99.90;;;;;;4977635;28;20176;-73
2021/12/12 00:43:37;;;;;;;8.50;7.67;;;2.50;99.90;;;;;;4977879;28;20190;-73
2021/12/12 00:46:06;;;;;;;9.17;8.27;;;2.30;99.90;;;;;;4995325;28;20176;-74
2021/12/12 00:48:34;;;;;;;8.93;8.03;;;2.30;99.90;;;;;;4995479;28;20184;-76
2021/12/12 00:51:03;;;;;;;9.00;8.10;;;2.20;99.90;;;;;;5009577;28;20267;-73
2021/12/12 00:53:30;;;;;;;11.47;9.20;;;2.30;99.90;;;;;;4995612;28;20222;-74
2021/12/12 00:55:57;;;;;;;9.83;8.83;;;2.30;99.90;;;;;;4977962;28;20282;-73
2021/12/12 00:58:24;;;;;;;9.30;8.40;;;2.20;99.90;;;;;;4977999;28;20187;-74
2021/12/12 01:01:02;;;;;;;9.07;8.17;;;2.30;99.90;;;;;;5036038;23;20683;-78
2021/12/12 01:03:39;;;;;;;10.50;9.40;;;2.40;99.90;;;;;;5015711;28;20174;-78
2021/12/12 01:06:07;;;;;;;12.80;10.37;;;2.30;99.90;;;;;;5015782;28;20183;-78
2021/12/12 01:08:33;;;;;;;10.53;9.50;;;2.30;99.90;;;;;;5015756;28;20174;-77
2021/12/12 01:11:16;;;;;;;11.70;10.07;;;2.20;99.90;;;;;;4981397;28;20697;-78
2021/12/12 01:13:43;;;;;;;9.83;8.83;;;2.20;99.90;;;;;;4979802;28;20183;-78
2021/12/12 01:16:23;;;;;;;8.90;8.10;;;2.20;99.90;;;;;;4978415;28;20206;-77
2021/12/12 01:18:57;;;;;;;9.83;8.83;;;2.20;99.90;;;;;;4995746;28;20506;-78
2021/12/12 01:21:28;;;;;;;9.90;8.20;;;2.20;99.90;;;;;;4995785;28;20549;-79
2021/12/12 01:23:59;;;;;;;8.80;7.97;;;2.30;99.90;;;;;;4995565;28;20203;-78
2021/12/12 01:26:29;;;;;;;9.77;8.77;;;2.20;99.90;;;;;;4995550;28;20554;-78
2021/12/12 01:28:58;;;;;;;8.30;7.50;;;2.20;99.90;;;;;;4965186;28;20179;-79
2021/12/12 01:31:30;;;;;;;9.07;8.10;;;2.30;99.90;;;;;;4995367;28;20180;-77
2021/12/12 01:34:12;;;;;;;8.03;7.27;;;2.20;99.90;;;;;;4994925;28;20183;-77
2021/12/12 01:36:53;;;;;;;9.07;7.97;;;2.10;99.90;;;;;;4977216;28;20249;-78
2021/12/12 01:39:23;;;;;;;7.70;6.90;;;2.00;99.90;;;;;;4994879;28;20293;-77
2021/12/12 01:42:03;;;;;;;8.73;7.83;;;2.00;99.90;;;;;;4994694;28;20176;-77
2021/12/12 01:44:40;;;;;;;7.47;6.73;;;2.00;99.90;;;;;;4994863;28;20172;-77
2021/12/12 01:47:34;;;;;;;8.57;7.30;;;2.00;99.90;;;;;;4994418;28;20175;-78
2021/12/12 01:50:04;;;;;;;8.23;7.43;;;1.90;99.90;;;;;;4944217;28;20257;-77
2021/12/12 01:52:32;;;;;;;7.73;6.87;;;1.90;99.90;;;;;;4976697;28;20192;-77
2021/12/12 01:55:13;;;;;;;6.63;6.03;;;2.00;99.90;;;;;;4977224;28;20247;-77
2021/12/12 01:57:40;;;;;;;8.20;7.20;;;1.90;99.90;;;;;;4994298;28;20698;-78
2021/12/12 02:00:12;;;;;;;7.70;6.87;;;1.90;99.90;;;;;;4994361;28;20214;-77
2021/12/12 02:02:39;;;;;;;7.00;6.30;;;1.90;99.90;;;;;;4977284;28;20282;-79
2021/12/12 02:05:12;;;;;;;7.53;6.70;;;1.90;99.90;;;;;;4994307;28;20186;-77
2021/12/12 02:07:50;;;;;;;7.77;6.77;;;1.90;99.90;;;;;;4994438;28;20176;-76
2021/12/12 02:10:25;;;;;;;7.60;6.90;;;2.00;99.90;;;;;;4994190;28;20211;-78
2021/12/12 02:12:51;;;;;;;7.60;6.90;;;1.90;99.90;;;;;;5005011;28;20181;-78
2021/12/12 02:15:17;;;;;;;7.97;6.87;;;1.90;99.90;;;;;;4994348;28;20227;-77
2021/12/12 02:17:47;;;;;;;8.27;6.53;;;1.80;99.90;;;;;;4994014;28;20203;-77
2021/12/12 02:20:36;;;;;;;8.60;7.73;;;1.70;99.90;;;;;;4993985;28;20227;-77
2021/12/12 02:23:15;;;;;;;7.97;6.87;;;1.70;99.90;;;;;;4994146;28;20230;-78
2021/12/12 02:36:50;;;;;;;8.93;7.50;;;1.60;99.90;;;;;;4993371;28;20250;-77
2021/12/12 02:39:16;;;;;;;8.07;6.87;;;1.60;99.90;;;;;;4993724;28;20221;-77
2021/12/12 02:41:49;;;;;;;8.17;7.03;;;1.50;99.90;;;;;;4976387;28;20236;-77
2021/12/12 02:44:15;;;;;;;7.13;6.43;;;1.40;99.90;;;;;;4993724;28;20540;-77
2021/12/12 02:46:43;;;;;;;7.17;6.47;;;1.40;99.90;;;;;;4991580;28;20187;-77
2021/12/12 02:49:25;;;;;;;9.07;7.37;;;1.40;99.90;;;;;;4974446;28;20210;-78
2021/12/12 02:51:53;;;;;;;7.73;6.90;;;1.40;99.90;;;;;;4981898;28;20183;-78
2021/12/12 02:54:19;;;;;;;8.50;7.70;;;1.50;99.90;;;;;;4991744;28;20658;-77
2021/12/12 02:56:47;;;;;;;9.13;7.33;;;1.60;99.90;;;;;;4991784;28;20202;-78
2021/12/12 02:59:17;;;;;;;7.17;6.47;;;1.60;99.90;;;;;;4991868;28;20278;-78
2021/12/12 03:01:48;;;;;;;8.17;7.10;;;1.60;99.90;;;;;;4991941;28;20210;-78
2021/12/12 03:04:14;;;;;;;8.00;6.47;;;1.50;99.90;;;;;;4974683;28;20172;-78
2021/12/12 03:06:42;;;;;;;7.57;6.87;;;1.60;99.90;;;;;;4995813;28;20175;-78
2021/12/12 03:09:21;;;;;;;8.17;6.53;;;1.80;99.90;;;;;;4996894;28;20187;-77
2021/12/12 03:11:53;;;;;;;8.53;7.17;;;1.70;99.90;;;;;;4997483;28;20205;-76
2021/12/12 03:14:19;;;;;;;8.33;7.17;;;1.70;99.90;;;;;;4980118;28;20176;-77
2021/12/12 03:16:46;;;;;;;8.80;7.13;;;1.70;99.90;;;;;;4979750;28;20200;-77
2021/12/12 03:19:12;;;;;;;7.97;7.07;;;1.70;99.90;;;;;;4997345;28;20208;-76
2021/12/12 03:21:42;;;;;;;7.77;6.90;;;1.60;99.90;;;;;;4979849;28;20172;-77
2021/12/12 03:24:23;;;;;;;10.27;7.17;;;1.60;99.90;;;;;;4980151;28;20639;-77
2021/12/12 03:26:51;;;;;;;8.47;7.40;;;1.50;99.90;;;;;;4997236;28;20168;-77
2021/12/12 03:29:17;;;;;;;8.67;7.33;;;1.50;99.90;;;;;;4979677;28;20196;-78
2021/12/12 03:31:50;;;;;;;8.90;7.43;;;1.60;99.90;;;;;;4997447;28;20183;-77
2021/12/12 03:34:19;;;;;;;7.93;6.87;;;1.60;99.90;;;;;;4997221;28;20186;-77
2021/12/12 03:36:46;;;;;;;7.70;6.90;;;1.60;99.90;;;;;;4997064;28;20207;-76
2021/12/12 03:39:16;;;;;;;7.53;6.63;;;1.50;99.90;;;;;;4997017;28;20180;-78
2021/12/12 03:41:43;;;;;;;8.30;7.37;;;1.60;99.90;;;;;;4997110;28;20179;-77
2021/12/12 03:44:13;;;;;;;8.40;7.23;;;1.60;99.90;;;;;;4996928;28;20227;-77
2021/12/12 03:46:41;;;;;;;7.33;6.63;;;1.50;99.90;;;;;;4979415;28;20618;-78
2021/12/12 03:49:08;;;;;;;7.67;6.87;;;1.60;99.90;;;;;;4979055;28;20183;-78
2021/12/12 03:51:36;;;;;;;8.47;6.73;;;1.70;99.90;;;;;;4997088;28;20223;-77
2021/12/12 03:54:03;;;;;;;7.50;6.70;;;1.80;99.90;;;;;;4979332;28;20198;-77
2021/12/12 03:56:30;;;;;;;7.63;6.87;;;1.80;99.90;;;;;;4996536;28;20708;-77
2021/12/12 03:58:57;;;;;;;7.50;6.80;;;1.80;99.90;;;;;;4996622;28;20192;-76
2021/12/12 04:01:30;;;;;;;10.00;8.30;;;1.70;99.90;;;;;;4996639;28;20179;-77
2021/12/12 04:04:00;;;;;;;7.57;6.87;;;1.60;99.90;;;;;;4979004;28;20175;-77
2021/12/12 04:06:29;;;;;;;7.40;6.60;;;1.50;99.90;;;;;;4996612;28;20532;-77
2021/12/12 04:08:56;;;;;;;8.27;7.47;;;1.50;99.90;;;;;;5004706;28;20183;-78
2021/12/12 04:11:46;;;;;;;8.60;7.70;;;1.50;99.90;;;;;;4978835;28;20186;-77
2021/12/12 04:14:13;;;;;;;9.33;6.90;;;1.40;99.90;;;;;;4995928;28;20199;-77
2021/12/12 04:16:42;;;;;;;9.73;7.60;;;1.50;99.90;;;;;;4996031;28;20231;-77
2021/12/12 04:19:08;;;;;;;11.07;8.17;;;1.50;99.90;;;;;;4996058;28;20629;-77
2021/12/12 04:21:36;;;;;;;9.97;7.60;;;1.50;99.90;;;;;;4978750;28;20237;-77
2021/12/12 04:24:02;;;;;;;9.77;7.90;;;1.60;99.90;;;;;;4996231;28;20697;-77
2021/12/12 04:26:31;;;;;;;8.40;7.60;;;1.60;99.90;;;;;;4996292;28;20184;-78
2021/12/12 04:29:13;;;;;;;8.63;7.63;;;1.60;99.90;;;;;;4996146;28;20179;-78
2021/12/12 04:31:45;;;;;;;9.13;8.03;;;1.60;99.90;;;;;;4978622;28;20179;-78
2021/12/12 04:34:11;;;;;;;10.20;8.13;;;1.50;99.90;;;;;;4978524;28;20183;-77
2021/12/12 04:36:42;;;;;;;8.03;6.97;;;1.50;99.90;;;;;;4978002;28;20266;-77
2021/12/12 04:39:17;;;;;;;9.70;8.30;;;1.50;99.90;;;;;;4996017;28;20245;-77
2021/12/12 04:41:44;;;;;;;10.77;8.40;;;1.50;99.90;;;;;;4978822;28;20182;-77
2021/12/12 04:44:10;;;;;;;9.87;7.83;;;1.50;99.90;;;;;;4978982;28;20627;-77
2021/12/12 04:49:56;;;;;;;8.53;7.30;;;1.50;99.90;;;;;;4996028;28;20226;-77
2021/12/12 04:52:43;;;;;;;8.90;7.80;;;1.50;99.90;;;;;;4978376;28;20190;-77
2021/12/12 04:55:25;;;;;;;8.20;7.40;;;1.50;99.90;;;;;;4995847;28;20187;-77
2021/12/12 04:58:04;;;;;;;8.90;7.67;;;1.50;99.90;;;;;;4977990;28;20204;-78
2021/12/12 05:00:35;;;;;;;8.03;7.23;;;1.50;99.90;;;;;;4976029;28;20274;-79
2021/12/12 05:03:23;;;;;;;9.07;7.33;;;1.50;99.90;;;;;;4992624;28;20266;-77
2021/12/12 05:06:09;;;;;;;8.03;7.23;;;1.50;99.90;;;;;;4975867;28;20219;-77
2021/12/12 05:08:54;;;;;;;9.37;7.23;;;1.50;99.90;;;;;;4964112;28;20176;-77
2021/12/12 05:11:23;;;;;;;7.73;6.93;;;1.40;99.90;;;;;;4994271;28;20180;-77
2021/12/12 05:13:55;;;;;;;8.03;7.23;;;1.30;99.90;;;;;;4995425;28;20271;-77
2021/12/12 05:16:30;;;;;;;7.63;6.30;;;1.20;99.90;;;;;;4994555;28;20199;-78
2021/12/12 05:19:06;;;;;;;8.30;7.03;;;1.20;99.90;;;;;;4995174;28;20183;-78
2021/12/12 05:21:38;;;;;;;8.60;7.07;;;1.20;99.90;;;;;;4995219;28;20226;-77
2021/12/12 05:24:07;;;;;;;8.40;6.83;;;1.10;99.90;;;;;;4977858;28;20185;-77
2021/12/12 05:26:55;;;;;;;7.83;6.70;;;1.10;99.90;;;;;;4978284;28;20190;-78
2021/12/12 05:29:27;;;;;;;7.93;6.53;;;1.00;99.90;;;;;;4976540;28;20298;-78
2021/12/12 05:31:56;;;;;;;7.50;6.73;;;1.00;99.90;;;;;;4994909;28;20234;-77
2021/12/12 05:34:27;;;;;;;9.10;7.67;;;1.00;99.90;;;;;;4978197;28;20198;-77
2021/12/12 05:36:53;;;;;;;7.20;6.10;;;1.00;99.90;;;;;;4994758;28;20217;-77
2021/12/12 05:39:21;;;;;;;7.83;6.80;;;1.00;99.90;;;;;;4994897;28;20282;-77
2021/12/12 05:41:48;;;;;;;6.60;5.90;;;1.00;99.90;;;;;;5008675;28;20179;-78
2021/12/12 05:44:16;;;;;;;7.30;6.60;;;1.00;99.90;;;;;;4994865;28;20180;-77
2021/12/12 05:46:42;;;;;;;7.20;6.10;;;0.90;99.90;;;;;;4994976;28;20180;-77
2021/12/12 05:49:08;;;;;;;8.23;7.10;;;0.90;99.90;;;;;;4994392;28;20191;-77
2021/12/12 05:51:35;;;;;;;8.60;6.67;;;0.80;99.90;;;;;;4977260;28;20191;-77
2021/12/12 05:54:02;;;;;;;7.13;6.43;;;0.70;99.90;;;;;;4995003;28;20270;-77
2021/12/12 05:56:30;;;;;;;7.53;6.70;;;0.70;99.90;;;;;;4977024;28;20196;-77
2021/12/12 05:58:57;;;;;;;8.27;7.00;;;0.60;99.90;;;;;;4994312;28;20766;-78
2021/12/12 06:01:24;;;;;;;9.33;7.70;;;0.60;99.90;;;;;;4977150;28;20183;-78
2021/12/12 06:03:51;;;;;;;8.20;6.47;;;0.70;99.90;;;;;;5005250;28;20182;-77
2021/12/12 06:06:25;;;;;;;7.70;6.90;;;0.70;99.90;;;;;;4980643;28;20193;-78
2021/12/12 06:08:52;;;;;;;10.10;6.73;;;0.70;99.90;;;;;;4977140;28;20558;-77
2021/12/12 06:11:21;;;;;;;8.50;7.37;;;0.70;99.90;;;;;;5008057;28;20656;-78
2021/12/12 06:13:48;;;;;;;8.33;6.33;;;0.50;99.90;;;;;;4977077;28;20188;-77
2021/12/12 06:16:18;;;;;;;8.87;6.97;;;0.40;99.90;;;;;;4977015;28;20207;-78
2021/12/12 06:18:50;;;;;;;8.77;7.20;;;0.40;99.90;;;;;;4993267;28;20207;-77
2021/12/12 06:21:17;;;;;;;8.93;6.97;;;0.30;99.90;;;;;;4994308;28;20204;-77
2021/12/12 06:23:43;;;;;;;9.53;7.00;;;0.20;99.90;;;;;;4976680;28;20175;-77
2021/12/12 06:26:09;;;;;;;9.10;7.37;;;0.10;99.90;;;;;;4976695;28;20184;-78
2021/12/12 06:28:38;;;;;;;7.97;6.70;;;0.00;99.90;;;;;;4977599;28;20183;-78
2021/12/12 06:31:05;;;;;;;8.17;7.07;;;0.10;99.90;;;;;;4994547;28;20231;-77
2021/12/12 06:33:32;;;;;;;9.23;7.47;;;0.10;99.90;;;;;;4994542;28;20275;-78
2021/12/12 06:35:58;;;;;;;8.80;7.00;;;0.00;99.90;;;;;;4977406;28;20180;-77
2021/12/12 06:38:25;;;;;;;8.63;7.20;;;0.10;99.90;;;;;;4994627;28;20186;-78
2021/12/12 06:40:51;;;;;;;8.80;6.90;;;0.00;99.90;;;;;;4993906;28;20211;-77
2021/12/12 06:43:20;;;;;;;8.87;7.07;;;0.00;99.90;;;;;;4976678;28;20669;-77
2021/12/12 06:45:47;;;;;;;9.23;7.47;;;-0.10;99.90;;;;;;4994835;28;20634;-77
2021/12/12 06:48:14;;;;;;;8.43;6.93;;;-0.10;99.90;;;;;;4976543;28;20187;-77
2021/12/12 06:50:42;;;;;;;10.70;7.70;;;-0.10;99.90;;;;;;4977402;28;20199;-78
2021/12/12 06:53:11;;;;;;;7.50;6.57;;;0.00;99.90;;;;;;4991315;28;20171;-78
2021/12/12 06:55:43;;;;;;;10.03;7.30;;;0.00;99.90;;;;;;4976672;28;20194;-77
2021/12/12 06:58:12;;;;;;;9.20;7.00;;;-0.10;99.90;;;;;;4977506;28;20180;-78
2021/12/12 07:00:39;;;;;;;8.63;7.10;;;-0.20;99.90;;;;;;4996207;28;20219;-77
2021/12/12 07:03:05;;;;;;;9.73;7.63;;;-0.20;99.90;;;;;;4977427;28;20431;-77
2021/12/12 07:05:32;;;;;;;9.90;8.23;;;-0.30;99.90;;;;;;4994610;28;20208;-77
2021/12/12 07:07:59;;;;;;;8.70;7.30;;;-0.30;99.90;;;;;;4994981;28;20180;-77
2021/12/12 07:10:28;;;;;;;8.70;7.37;;;-0.40;99.90;;;;;;4994613;28;20607;-78
2021/12/12 07:12:56;;;;;;;12.13;8.20;;;-0.40;99.90;;;;;;4993713;28;20198;-78
2021/12/12 07:15:25;;;;;;;11.60;8.17;;;-0.40;99.90;;;;;;4976342;28;20259;-77
2021/12/12 07:18:00;;;;;;;10.63;7.67;;;-0.40;99.90;;;;;;4993497;28;20223;-78
2021/12/12 07:20:27;;;;;;;10.60;7.80;;;-0.40;99.90;;;;;;4993825;28;20202;-77
2021/12/12 07:22:53;;;;;;;11.00;7.63;;;-0.40;99.90;;;;;;4976795;28;20191;-77
2021/12/12 07:25:20;;;;;;;9.93;7.90;;;-0.50;99.90;;;;;;4976248;28;20203;-77
2021/12/12 07:27:46;;;;;;;12.60;8.23;;;-0.50;99.90;;;;;;4993515;28;20187;-78
2021/12/12 07:30:12;;;;;;;10.00;7.47;;;-0.50;99.90;;;;;;4976353;28;20246;-78
2021/12/12 07:32:39;;;;;;;10.80;7.43;;;-0.30;99.90;;;;;;4994229;28;20175;-77
2021/12/12 07:35:11;;;;;;;10.77;7.30;;;-0.20;99.90;;;;;;4977496;28;20234;-78
2021/12/12 07:37:38;;;;;;;11.93;7.97;;;-0.10;99.90;;;;;;4980223;28;20337;-77
2021/12/12 07:40:06;;;;;;;12.47;8.53;;;-0.10;99.90;;;;;;4998098;28;20732;-79
2021/12/12 07:42:33;;;;;;;14.07;9.70;;;-0.10;99.90;;;;;;4998741;28;20255;-78
2021/12/12 07:44:59;;;;;;;87.73;39.17;;;-0.20;99.90;;;;;;4979185;28;20649;-78
2021/12/12 07:47:25;;;;;;;10.90;9.07;;;-0.30;99.90;;;;;;4978906;28;20571;-79
2021/12/12 07:49:51;;;;;;;12.67;8.17;;;-0.30;99.90;;;;;;4995554;28;20220;-78
2021/12/12 07:52:21;;;;;;;13.13;9.03;;;-0.40;99.90;;;;;;4980051;28;20277;-77
2021/12/12 07:54:52;;;;;;;11.53;8.63;;;-0.40;99.90;;;;;;4999018;28;20768;-77
2021/12/12 07:57:18;;;;;;;11.13;8.57;;;-0.20;99.90;;;;;;4980694;28;20580;-77
2021/12/12 07:59:45;;;;;;;11.50;9.23;;;-0.10;99.90;;;;;;4998337;28;20219;-77
2021/12/12 08:02:13;;;;;;;9.43;8.43;;;0.00;99.90;;;;;;4998448;28;20639;-78
2021/12/12 08:04:40;;;;;;;10.03;8.23;;;0.00;99.90;;;;;;4998923;28;20194;-78
2021/12/12 08:07:16;;;;;;;8.43;7.37;;;0.10;99.90;;;;;;4998144;28;20246;-77
2021/12/12 08:09:43;;;;;;;9.40;7.90;;;0.10;99.90;;;;;;4994171;28;20249;-77
2021/12/12 08:12:16;;;;;;;8.03;7.23;;;0.00;99.90;;;;;;4983947;28;20646;-78
2021/12/12 08:14:43;;;;;;;8.67;7.57;;;0.00;99.90;;;;;;5001401;28;20191;-78
2021/12/12 08:17:10;;;;;;;9.77;6.97;;;0.10;99.90;;;;;;5001372;28;20195;-78
2021/12/12 08:19:37;;;;;;;7.43;6.73;;;0.20;99.90;;;;;;4999529;28;20200;-78
2021/12/12 08:22:06;;;;;;;7.87;7.07;;;0.20;99.90;;;;;;4996699;28;20279;-78
2021/12/12 08:24:34;;;;;;;9.63;6.83;;;0.30;99.90;;;;;;4997150;28;20195;-78
2021/12/12 08:27:03;;;;;;;9.63;6.43;;;0.20;99.90;;;;;;4997097;28;20179;-77
2021/12/12 08:29:30;;;;;;;7.83;7.03;;;0.20;99.90;;;;;;4997083;28;20195;-78
2021/12/12 08:31:57;;;;;;;8.80;6.93;;;0.30;99.90;;;;;;4997100;28;20258;-78
2021/12/12 08:34:26;;;;;;;8.27;6.93;;;0.30;99.90;;;;;;4998381;28;20187;-78
2021/12/12 08:36:54;;;;;;;10.07;7.47;;;0.40;99.90;;;;;;4982266;28;20713;-78
2021/12/12 08:39:21;;;;;;;6.97;6.27;;;0.50;99.90;;;;;;4998129;28;20195;-78
2021/12/12 08:41:49;;;;;;;7.30;6.50;;;0.50;99.90;;;;;;4979653;28;20180;-79
2021/12/12 08:44:15;;;;;;;9.37;7.23;;;0.50;99.90;;;;;;4978547;28;20729;-78
2021/12/12 08:46:45;;;;;;;9.23;7.37;;;0.50;99.90;;;;;;4995877;28;20180;-77
2021/12/12 08:49:12;;;;;;;8.10;7.30;;;0.50;99.90;;;;;;4978655;28;20651;-78
2021/12/12 08:51:48;;;;;;;8.20;6.83;;;0.60;99.90;;;;;;4996211;28;20168;-77
2021/12/12 08:54:23;;;;;;;8.43;6.90;;;0.60;99.90;;;;;;4996051;28;20201;-77
2021/12/12 08:56:50;;;;;;;7.87;6.90;;;0.60;99.90;;;;;;4996738;28;20206;-78
2021/12/12 08:59:21;;;;;;;8.00;6.90;;;0.70;99.90;;;;;;4997506;28;20287;-78
2021/12/12 09:01:49;;;;;;;9.03;8.10;;;0.80;99.90;;;;;;4980081;28;20176;-78
2021/12/12 09:04:15;;;;;;;9.13;7.37;;;0.80;99.90;;;;;;5000957;28;20215;-79
2021/12/12 09:07:10;;;;;;;12.53;8.27;;;0.80;99.90;;;;;;4997689;28;20183;-77
2021/12/12 09:09:52;;;;;;;10.33;7.70;;;0.80;99.90;;;;;;5000705;28;20207;-78
2021/12/12 09:12:28;;;;;;;10.00;7.63;;;0.80;99.90;;;;;;5002659;28;20579;-79
2021/12/12 09:14:58;;;;;;;9.20;8.20;;;0.80;99.90;;;;;;4984612;28;20658;-77
2021/12/12 09:17:31;;;;;;;12.53;9.23;;;0.90;99.90;;;;;;4980225;28;20207;-77
2021/12/12 09:20:12;;;;;;;12.27;9.43;;;0.90;99.90;;;;;;4997266;28;20246;-78
2021/12/12 09:22:48;;;;;;;12.17;9.37;;;1.00;99.90;;;;;;4996648;28;20172;-78
2021/12/12 09:25:24;;;;;;;25.63;16.83;;;1.00;99.90;;;;;;4997526;28;20258;-78
2021/12/12 09:28:00;;;;;;;17.73;12.60;;;1.10;99.90;;;;;;4987506;28;20185;-77
2021/12/12 09:30:27;;;;;;;18.23;13.40;;;1.20;99.90;;;;;;4969058;28;20281;-78
2021/12/12 09:33:04;;;;;;;20.27;15.00;;;1.20;99.90;;;;;;4977521;28;20176;-77
2021/12/12 09:35:52;;;;;;;15.13;11.40;;;1.30;99.90;;;;;;4995001;28;20179;-78
2021/12/12 09:38:28;;;;;;;14.83;11.77;;;1.30;99.90;;;;;;4988276;28;20187;-77
2021/12/12 09:41:23;;;;;;;16.10;10.63;;;1.40;99.90;;;;;;4995436;28;20242;-78
2021/12/12 09:44:22;;;;;;;11.43;10.23;;;1.50;99.90;;;;;;4980358;28;20567;-78
2021/12/12 09:47:36;;;;;;;9.43;8.50;;;1.80;99.90;;;;;;4997035;28;20326;-77
2021/12/12 09:53:30;;;;;;;10.43;9.20;;;1.90;99.90;;;;;;4996129;28;20214;-77
2021/12/12 09:56:07;;;;;;;9.93;7.67;;;2.00;99.90;;;;;;4995027;28;20237;-78
2021/12/12 09:58:40;;;;;;;12.07;8.73;;;2.10;99.90;;;;;;4995291;28;20176;-77
2021/12/12 10:01:26;;;;;;;8.40;7.60;;;2.10;99.90;;;;;;4995281;28;20786;-78
2021/12/12 10:04:02;;;;;;;8.30;7.00;;;2.10;99.90;;;;;;4996704;28;20278;-77
2021/12/12 10:07:11;;;;;;;8.00;7.20;;;2.00;99.90;;;;;;4997240;28;20183;-77
2021/12/12 10:09:52;;;;;;;8.63;7.37;;;2.00;99.90;;;;;;4973779;28;20218;-78
2021/12/12 10:12:28;;;;;;;9.80;8.13;;;2.10;99.90;;;;;;4980391;28;20196;-77
2021/12/12 10:15:19;;;;;;;11.40;8.23;;;2.10;99.90;;;;;;4996668;28;20175;-77
2021/12/12 10:18:05;;;;;;;9.80;7.80;;;2.30;99.90;;;;;;4998823;28;20200;-79
2021/12/12 10:20:33;;;;;;;12.70;9.47;;;2.30;99.90;;;;;;4995795;28;20684;-78
2021/12/12 10:23:16;;;;;;;13.03;9.40;;;2.30;99.90;;;;;;4998465;28;20184;-78
2021/12/12 10:25:52;;;;;;;10.67;9.47;;;2.30;99.90;;;;;;4999173;28;20175;-79
2021/12/12 10:28:23;;;;;;;13.27;9.83;;;2.30;99.90;;;;;;4997708;28;20262;-79
2021/12/12 10:31:01;;;;;;;15.40;9.87;;;2.40;99.90;;;;;;4998603;28;20195;-78
2021/12/12 10:33:52;;;;;;;12.67;10.70;;;2.40;99.90;;;;;;4982086;28;20270;-76
2021/12/12 10:36:21;;;;;;;12.30;10.30;;;2.50;99.90;;;;;;4993895;28;20696;-76
2021/12/12 10:39:17;;;;;;;16.40;11.07;;;2.50;99.90;;;;;;4995925;28;20175;-78
2021/12/12 10:41:47;;;;;;;14.23;11.57;;;2.50;99.90;;;;;;4996229;28;20196;-78
2021/12/12 10:44:24;;;;;;;15.77;12.90;;;2.50;99.90;;;;;;4995788;28;20171;-76
2021/12/12 10:47:12;;;;;;;16.57;13.00;;;2.50;99.90;;;;;;4996234;28;20190;-77
2021/12/12 10:49:55;;;;;;;18.83;13.27;;;2.50;99.90;;;;;;4976689;28;20203;-78
2021/12/12 10:52:50;;;;;;;17.73;13.37;;;2.50;99.90;;;;;;4994286;28;20187;-78
2021/12/12 10:55:30;;;;;;;20.33;14.30;;;2.50;99.90;;;;;;4997442;28;20242;-78
2021/12/12 10:58:24;;;;;;;19.43;14.20;;;2.60;99.90;;;;;;4997961;28;20670;-77
2021/12/12 11:00:54;;;;;;;18.27;14.27;;;2.70;99.90;;;;;;4997218;28;20224;-78
2021/12/12 11:03:26;;;;;;;17.53;13.20;;;2.70;99.90;;;;;;4981385;28;20187;-80
2021/12/12 11:06:21;;;;;;;17.07;13.23;;;2.80;99.90;;;;;;4999612;28;20172;-78
2021/12/12 11:08:58;;;;;;;17.23;14.03;;;2.80;99.90;;;;;;4999148;28;20187;-78
2021/12/12 11:11:29;;;;;;;21.13;14.40;;;2.80;99.90;;;;;;4998443;28;20201;-79
2021/12/12 11:14:21;;;;;;;20.00;13.20;;;3.00;99.90;;;;;;4980453;28;20175;-78
2021/12/12 11:16:53;;;;;;;17.23;12.60;;;2.90;99.90;;;;;;4996467;28;20346;-78
2021/12/12 11:19:34;;;;;;;16.10;12.40;;;2.90;99.90;;;;;;4996348;28;20206;-78
2021/12/12 11:22:12;;;;;;;19.57;13.17;;;2.70;99.90;;;;;;4997093;28;20203;-78
2021/12/12 11:24:43;;;;;;;17.13;12.27;;;2.80;99.90;;;;;;4997526;28;20176;-78
2021/12/12 11:27:14;;;;;;;18.47;13.73;;;2.80;99.90;;;;;;5000167;28;20231;-78
2021/12/12 11:29:45;;;;;;;14.33;12.33;;;3.00;99.90;;;;;;5002124;28;20199;-79
2021/12/12 11:32:16;;;;;;;19.47;12.70;;;2.90;99.90;;;;;;4985983;28;20180;-79
2021/12/12 11:34:46;;;;;;;17.27;13.17;;;3.00;99.90;;;;;;4985729;28;20226;-78
2021/12/12 11:37:15;;;;;;;20.57;13.30;;;3.10;99.90;;;;;;4985432;28;20263;-78
2021/12/12 11:39:57;;;;;;;16.27;12.90;;;3.20;99.90;;;;;;4999988;28;20254;-78
2021/12/12 11:42:46;;;;;;;17.30;12.53;;;3.40;99.90;;;;;;4997442;28;20172;-77
2021/12/12 11:45:21;;;;;;;13.70;11.67;;;3.40;99.90;;;;;;4979722;28;20180;-78
2021/12/12 11:48:28;;;;;;;15.17;12.47;;;3.30;99.90;;;;;;4997387;28;20197;-77
2021/12/12 11:51:06;;;;;;;17.40;12.87;;;3.20;99.90;;;;;;5002457;28;20218;-78
2021/12/12 11:53:44;;;;;;;13.83;12.00;;;3.30;99.90;;;;;;4985920;28;20190;-78
2021/12/12 11:56:16;;;;;;;16.33;12.00;;;3.40;99.90;;;;;;5002475;28;20192;-78
2021/12/12 11:59:00;;;;;;;15.33;12.53;;;3.50;99.90;;;;;;5003619;28;20172;-78
2021/12/12 12:01:38;;;;;;;17.53;12.63;;;3.50;99.90;;;;;;4986055;28;20621;-79
2021/12/12 12:04:10;;;;;;;14.03;11.07;;;3.60;99.90;;;;;;5002775;28;20211;-78
2021/12/12 12:07:12;;;;;;;13.30;10.80;;;3.60;99.90;;;;;;5001507;28;20187;-78
2021/12/12 12:10:01;;;;;;;12.83;11.03;;;3.50;99.90;;;;;;5011267;28;20728;-78
2021/12/12 12:13:00;;;;;;;15.20;10.70;;;3.50;99.90;;;;;;5001285;28;20183;-78
2021/12/12 12:15:34;;;;;;;14.77;11.23;;;3.30;99.90;;;;;;5001695;28;20235;-78
2021/12/12 12:18:26;;;;;;;14.70;11.77;;;3.30;99.90;;;;;;5000494;28;20207;-79
2021/12/12 12:21:09;;;;;;;16.67;11.97;;;3.20;99.90;;;;;;4990231;28;20216;-78
2021/12/12 12:29:31;;;;;;;13.70;11.37;;;3.40;99.90;;;;;;5004480;28;20215;-79
2021/12/12 12:32:31;;;;;;;13.13;11.67;;;3.20;99.90;;;;;;5001510;28;20253;-78
2021/12/12 12:35:34;;;;;;;12.87;11.03;;;3.30;99.90;;;;;;4999894;28;20180;-78
2021/12/12 12:38:37;;;;;;;13.63;10.97;;;3.30;99.90;;;;;;5001448;28;20213;-78
2021/12/12 12:41:31;;;;;;;15.70;11.63;;;3.40;99.90;;;;;;4994111;28;20198;-79
2021/12/12 12:44:34;;;;;;;15.97;11.30;;;3.40;99.90;;;;;;4977600;28;20168;-76
2021/12/12 12:47:21;;;;;;;13.48;12.07;;;3.50;99.90;;;;;;4996128;28;20748;-74
2021/12/12 12:50:07;;;;;;;14.50;10.93;;;3.70;99.90;;;;;;4978679;28;20674;-73
2021/12/12 12:52:51;;;;;;;12.80;10.93;;;3.80;99.90;;;;;;4992776;28;20169;-72
2021/12/12 12:55:55;;;;;;;15.93;11.83;;;3.80;99.90;;;;;;4988353;28;20275;-73
2021/12/12 12:58:23;;;;;;;12.37;11.13;;;3.90;99.90;;;;;;4981155;28;20206;-73
2021/12/12 13:00:54;;;;;;;13.17;10.53;;;4.00;99.90;;;;;;5015021;23;20720;-75
2021/12/12 13:03:52;;;;;;;14.33;10.90;;;3.90;99.90;;;;;;5014105;28;20207;-75
2021/12/12 13:06:58;;;;;;;14.47;10.20;;;3.90;99.90;;;;;;4998763;28;20176;-75
2021/12/12 13:09:34;;;;;;;14.57;10.90;;;3.90;99.90;;;;;;5014284;28;20217;-75
2021/12/12 13:12:31;;;;;;;10.97;9.87;;;4.00;99.90;;;;;;5016288;28;20175;-75
2021/12/12 13:15:03;;;;;;;11.30;9.93;;;4.00;99.90;;;;;;5015764;28;20254;-74
2021/12/12 13:18:06;;;;;;;10.70;9.67;;;4.00;99.90;;;;;;5010850;28;20712;-74
2021/12/12 13:20:34;;;;;;;13.40;10.17;;;4.20;99.90;;;;;;5015646;28;20194;-74
2021/12/12 13:23:34;;;;;;;13.23;10.13;;;4.30;99.90;;;;;;5016108;28;20266;-74
2021/12/12 13:26:34;;;;;;;10.63;9.53;;;4.30;99.90;;;;;;4993918;28;20180;-74
2021/12/12 13:29:20;;;;;;;10.90;9.77;;;4.20;99.90;;;;;;4988095;28;20192;-75
2021/12/12 13:32:27;;;;;;;12.20;9.90;;;4.10;99.90;;;;;;5014613;28;20206;-75
2021/12/12 16:13:34;;;;;;;10.63;9.33;;;3.90;99.90;;;;;;4987632;28;20245;-73
2021/12/12 16:16:28;;;;;;;12.97;10.53;;;3.90;99.90;;;;;;4986786;28;20259;-73
2021/12/12 16:19:07;;;;;;;11.80;10.47;;;4.00;99.90;;;;;;4989191;28;20196;-74
2021/12/12 16:21:34;;;;;;;13.67;10.73;;;3.80;99.90;;;;;;4988164;28;20203;-74
2021/12/12 16:24:03;;;;;;;12.37;11.17;;;3.90;99.90;;;;;;4979787;28;20272;-75
2021/12/12 16:26:45;;;;;;;11.40;10.27;;;3.90;99.90;;;;;;4996645;28;20237;-75
2021/12/12 16:29:15;;;;;;;11.47;10.27;;;3.90;99.90;;;;;;4989787;28;20176;-74